sensor_id;sensor_type;location;lat;lon;timestamp;temperature;humidity
6696;DHT22;3385;48.928;10.330;2023-11-21T00:01:19;5.50;99.90
6696;DHT22;3385;48.928;10.330;2023-11-21T00:03:45;5.50;99.90
6696;DHT22;3385;48.928;10.330;2023-11-21T00:06:10;5.60;99.90
6696;DHT22;3385;48.928;10.330;2023-11-21T00:08:37;1.60;99.90
6696;DHT22;3385;48.928;10.330;2023-11-21T00:11:02;5.60;99.90
6696;DHT22;3385;48.928;10.330;2023-11-21T00:13:31;5.60;99.90
6696;DHT22;3385;48.928;10.330;2023-11-21T00:15:57;5.60;99.90
6696;DHT22;3385;48.928;10.330;2023-11-21T00:18:23;5.60;99.90
6696;DHT22;3385;48.928;10.330;2023-11-21T00:20:48;5.60;99.90
6696;DHT22;3385;48.928;10.330;2023-11-21T00:23:14;5.60;99.90
6696;DHT22;3385;48.928;10.330;2023-11-21T00:25:40;5.50;99.90
6696;DHT22;3385;48.928;10.330;2023-11-21T00:28:05;5.60;99.90
6696;DHT22;3385;48.928;10.330;2023-11-21T00:30:31;5.50;99.90
6696;DHT22;3385;48.928;10.330;2023-11-21T00:32:57;5.50;99.90
6696;DHT22;3385;48.928;10.330;2023-11-21T00:35:23;5.50;99.90
6696;DHT22;3385;48.928;10.330;2023-11-21T00:37:49;5.50;99.90
6696;DHT22;3385;48.928;10.330;2023-11-21T00:40:15;5.50;99.90
6696;DHT22;3385;48.928;10.330;2023-11-21T00:42:41;5.40;99.90
6696;DHT22;3385;48.928;10.330;2023-11-21T00:45:08;5.40;99.90
6696;DHT22;3385;48.928;10.330;2023-11-21T00:47:34;5.40;99.90
6696;DHT22;3385;48.928;10.330;2023-11-21T00:49:59;5.30;99.90
6696;DHT22;3385;48.928;10.330;2023-11-21T00:52:25;5.40;99.90
6696;DHT22;3385;48.928;10.330;2023-11-21T00:54:51;5.40;99.90
6696;DHT22;3385;48.928;10.330;2023-11-21T00:57:17;5.40;99.90
6696;DHT22;3385;48.928;10.330;2023-11-21T00:59:42;5.40;99.90
6696;DHT22;3385;48.928;10.330;2023-11-21T01:02:08;5.40;99.90
6696;DHT22;3385;48.928;10.330;2023-11-21T01:04:36;5.40;99.90
6696;DHT22;3385;48.928;10.330;2023-11-21T01:07:02;5.30;99.90
6696;DHT22;3385;48.928;10.330;2023-11-21T01:09:27;5.30;99.90
6696;DHT22;3385;48.928;10.330;2023-11-21T01:11:53;5.40;99.90
6696;DHT22;3385;48.928;10.330;2023-11-21T01:14:19;5.40;99.90
6696;DHT22;3385;48.928;10.330;2023-11-21T01:16:45;5.30;99.90
6696;DHT22;3385;48.928;10.330;2023-11-21T01:19:11;5.40;99.90
6696;DHT22;3385;48.928;10.330;2023-11-21T01:21:36;5.40;99.90
6696;DHT22;3385;48.928;10.330;2023-11-21T01:24:03;5.40;99.90
6696;DHT22;3385;48.928;10.330;2023-11-21T01:26:29;5.40;99.90
6696;DHT22;3385;48.928;10.330;2023-11-21T01:28:54;5.40;99.90
6696;DHT22;3385;48.928;10.330;2023-11-21T01:31:20;5.40;99.90
6696;DHT22;3385;48.928;10.330;2023-11-21T01:33:46;5.50;99.90
6696;DHT22;3385;48.928;10.330;2023-11-21T01:36:12;5.40;99.90
6696;DHT22;3385;48.928;10.330;2023-11-21T01:38:37;5.50;99.90
6696;DHT22;3385;48.928;10.330;2023-11-21T01:41:04;5.50;99.90
6696;DHT22;3385;48.928;10.330;2023-11-21T01:43:30;5.50;99.90
6696;DHT22;3385;48.928;10.330;2023-11-21T01:45:57;5.60;99.90
6696;DHT22;3385;48.928;10.330;2023-11-21T01:48:24;5.70;99.90
6696;DHT22;3385;48.928;10.330;2023-11-21T01:50:50;5.60;99.90
6696;DHT22;3385;48.928;10.330;2023-11-21T01:53:16;5.60;99.90
6696;DHT22;3385;48.928;10.330;2023-11-21T01:55:42;5.70;99.90
6696;DHT22;3385;48.928;10.330;2023-11-21T01:58:10;5.70;99.90
6696;DHT22;3385;48.928;10.330;2023-11-21T02:00:36;5.70;99.90
6696;DHT22;3385;48.928;10.330;2023-11-21T02:03:04;5.60;99.90
6696;DHT22;3385;48.928;10.330;2023-11-21T02:05:29;5.60;99.90
6696;DHT22;3385;48.928;10.330;2023-11-21T02:07:55;5.60;99.90
6696;DHT22;3385;48.928;10.330;2023-11-21T02:10:22;5.50;99.90
6696;DHT22;3385;48.928;10.330;2023-11-21T02:12:49;5.50;99.90
6696;DHT22;3385;48.928;10.330;2023-11-21T02:15:18;5.50;99.90
6696;DHT22;3385;48.928;10.330;2023-11-21T02:17:47;5.50;99.90
6696;DHT22;3385;48.928;10.330;2023-11-21T02:20:17;5.60;99.90
6696;DHT22;3385;48.928;10.330;2023-11-21T02:23:03;5.50;99.90
6696;DHT22;3385;48.928;10.330;2023-11-21T02:25:31;5.50;99.90
6696;DHT22;3385;48.928;10.330;2023-11-21T02:28:01;5.50;99.90
6696;DHT22;3385;48.928;10.330;2023-11-21T02:30:28;5.50;99.90
6696;DHT22;3385;48.928;10.330;2023-11-21T02:32:54;5.50;99.90
6696;DHT22;3385;48.928;10.330;2023-11-21T02:35:22;5.40;99.90
6696;DHT22;3385;48.928;10.330;2023-11-21T02:37:48;5.50;99.90
6696;DHT22;3385;48.928;10.330;2023-11-21T02:40:14;5.50;99.90
6696;DHT22;3385;48.928;10.330;2023-11-21T02:42:49;5.50;99.90
6696;DHT22;3385;48.928;10.330;2023-11-21T02:45:17;5.50;99.90
6696;DHT22;3385;48.928;10.330;2023-11-21T02:47:43;5.50;99.90
6696;DHT22;3385;48.928;10.330;2023-11-21T02:50:09;5.50;99.90
6696;DHT22;3385;48.928;10.330;2023-11-21T02:52:36;5.50;99.90
6696;DHT22;3385;48.928;10.330;2023-11-21T02:55:02;5.50;99.90
6696;DHT22;3385;48.928;10.330;2023-11-21T02:57:28;5.50;99.90
6696;DHT22;3385;48.928;10.330;2023-11-21T02:59:54;5.50;99.90
6696;DHT22;3385;48.928;10.330;2023-11-21T03:02:20;5.50;99.90
6696;DHT22;3385;48.928;10.330;2023-11-21T03:04:46;5.50;99.90
6696;DHT22;3385;48.928;10.330;2023-11-21T03:07:15;5.50;99.90
6696;DHT22;3385;48.928;10.330;2023-11-21T03:09:40;5.50;99.90
6696;DHT22;3385;48.928;10.330;2023-11-21T03:12:06;5.60;99.90
6696;DHT22;3385;48.928;10.330;2023-11-21T03:14:32;5.60;99.90
6696;DHT22;3385;48.928;10.330;2023-11-21T03:16:58;5.60;99.90
6696;DHT22;3385;48.928;10.330;2023-11-21T03:19:23;5.70;99.90
6696;DHT22;3385;48.928;10.330;2023-11-21T03:21:49;5.60;99.90
6696;DHT22;3385;48.928;10.330;2023-11-21T03:24:15;5.70;99.90
6696;DHT22;3385;48.928;10.330;2023-11-21T03:26:45;5.70;99.90
6696;DHT22;3385;48.928;10.330;2023-11-21T03:29:11;5.70;99.90
6696;DHT22;3385;48.928;10.330;2023-11-21T03:31:36;5.70;99.90
6696;DHT22;3385;48.928;10.330;2023-11-21T03:34:02;5.70;99.90
6696;DHT22;3385;48.928;10.330;2023-11-21T03:36:28;5.70;99.90
6696;DHT22;3385;48.928;10.330;2023-11-21T03:38:53;5.80;99.90
6696;DHT22;3385;48.928;10.330;2023-11-21T03:41:20;5.80;99.90
6696;DHT22;3385;48.928;10.330;2023-11-21T03:43:46;5.90;99.90
6696;DHT22;3385;48.928;10.330;2023-11-21T03:46:11;5.90;99.90
6696;DHT22;3385;48.928;10.330;2023-11-21T03:48:38;5.90;99.90
6696;DHT22;3385;48.928;10.330;2023-11-21T03:51:04;6.00;99.90
6696;DHT22;3385;48.928;10.330;2023-11-21T03:53:30;5.90;99.90
6696;DHT22;3385;48.928;10.330;2023-11-21T03:55:55;6.00;99.90
6696;DHT22;3385;48.928;10.330;2023-11-21T03:58:21;6.00;99.90
6696;DHT22;3385;48.928;10.330;2023-11-21T04:00:47;6.00;99.90
6696;DHT22;3385;48.928;10.330;2023-11-21T04:03:16;5.80;99.90
6696;DHT22;3385;48.928;10.330;2023-11-21T04:05:41;5.80;99.90
6696;DHT22;3385;48.928;10.330;2023-11-21T04:08:07;5.90;99.90
6696;DHT22;3385;48.928;10.330;2023-11-21T04:10:33;5.90;99.90
6696;DHT22;3385;48.928;10.330;2023-11-21T04:12:59;5.90;99.90
6696;DHT22;3385;48.928;10.330;2023-11-21T04:15:25;5.80;99.90
6696;DHT22;3385;48.928;10.330;2023-11-21T04:17:51;5.80;99.90
6696;DHT22;3385;48.928;10.330;2023-11-21T04:20:17;5.90;99.90
6696;DHT22;3385;48.928;10.330;2023-11-21T04:22:44;5.90;99.90
6696;DHT22;3385;48.928;10.330;2023-11-21T04:25:14;5.70;99.90
6696;DHT22;3385;48.928;10.330;2023-11-21T04:27:41;5.80;99.90
6696;DHT22;3385;48.928;10.330;2023-11-21T04:30:10;5.80;99.90
6696;DHT22;3385;48.928;10.330;2023-11-21T04:32:36;5.80;99.90
6696;DHT22;3385;48.928;10.330;2023-11-21T04:35:01;5.90;99.90
6696;DHT22;3385;48.928;10.330;2023-11-21T04:37:27;5.90;99.90
6696;DHT22;3385;48.928;10.330;2023-11-21T04:39:53;5.90;99.90
6696;DHT22;3385;48.928;10.330;2023-11-21T04:42:19;5.90;99.90
6696;DHT22;3385;48.928;10.330;2023-11-21T04:44:44;5.80;99.90
6696;DHT22;3385;48.928;10.330;2023-11-21T04:47:10;6.00;99.90
6696;DHT22;3385;48.928;10.330;2023-11-21T04:49:36;5.90;99.90
6696;DHT22;3385;48.928;10.330;2023-11-21T04:52:02;5.80;99.90
6696;DHT22;3385;48.928;10.330;2023-11-21T04:54:30;5.80;99.90
6696;DHT22;3385;48.928;10.330;2023-11-21T04:56:56;5.90;99.90
6696;DHT22;3385;48.928;10.330;2023-11-21T04:59:22;5.80;99.90
6696;DHT22;3385;48.928;10.330;2023-11-21T05:01:50;5.80;99.90
6696;DHT22;3385;48.928;10.330;2023-11-21T05:04:16;5.80;99.90
6696;DHT22;3385;48.928;10.330;2023-11-21T05:06:42;5.80;99.90
6696;DHT22;3385;48.928;10.330;2023-11-21T05:09:08;5.90;99.90
6696;DHT22;3385;48.928;10.330;2023-11-21T05:11:37;6.00;99.90
6696;DHT22;3385;48.928;10.330;2023-11-21T05:14:03;6.00;99.90
6696;DHT22;3385;48.928;10.330;2023-11-21T05:16:30;6.10;99.90
6696;DHT22;3385;48.928;10.330;2023-11-21T05:18:56;6.00;99.90
6696;DHT22;3385;48.928;10.330;2023-11-21T05:21:29;6.00;99.90
6696;DHT22;3385;48.928;10.330;2023-11-21T05:23:57;6.10;99.90
6696;DHT22;3385;48.928;10.330;2023-11-21T05:26:23;6.10;99.90
6696;DHT22;3385;48.928;10.330;2023-11-21T05:28:48;6.10;99.90
6696;DHT22;3385;48.928;10.330;2023-11-21T05:31:14;6.00;99.90
6696;DHT22;3385;48.928;10.330;2023-11-21T05:33:40;6.10;99.90
6696;DHT22;3385;48.928;10.330;2023-11-21T05:36:07;6.00;99.90
6696;DHT22;3385;48.928;10.330;2023-11-21T05:38:35;6.00;99.90
6696;DHT22;3385;48.928;10.330;2023-11-21T05:41:01;6.10;99.90
6696;DHT22;3385;48.928;10.330;2023-11-21T05:43:27;6.00;99.90
6696;DHT22;3385;48.928;10.330;2023-11-21T05:45:55;6.10;99.90
6696;DHT22;3385;48.928;10.330;2023-11-21T05:48:20;6.10;99.90
6696;DHT22;3385;48.928;10.330;2023-11-21T05:50:46;6.20;99.90
6696;DHT22;3385;48.928;10.330;2023-11-21T05:53:14;6.20;99.90
6696;DHT22;3385;48.928;10.330;2023-11-21T05:55:41;6.10;99.90
6696;DHT22;3385;48.928;10.330;2023-11-21T05:58:07;6.20;99.90
6696;DHT22;3385;48.928;10.330;2023-11-21T06:00:34;6.10;99.90
6696;DHT22;3385;48.928;10.330;2023-11-21T06:03:00;6.20;99.90
6696;DHT22;3385;48.928;10.330;2023-11-21T06:05:26;6.20;99.90
6696;DHT22;3385;48.928;10.330;2023-11-21T06:07:56;6.20;99.90
6696;DHT22;3385;48.928;10.330;2023-11-21T06:10:24;6.20;99.90
6696;DHT22;3385;48.928;10.330;2023-11-21T06:12:50;6.20;99.90
6696;DHT22;3385;48.928;10.330;2023-11-21T06:15:16;6.20;99.90
6696;DHT22;3385;48.928;10.330;2023-11-21T06:17:44;6.20;99.90
6696;DHT22;3385;48.928;10.330;2023-11-21T06:20:14;6.20;99.90
6696;DHT22;3385;48.928;10.330;2023-11-21T06:22:44;6.20;99.90
6696;DHT22;3385;48.928;10.330;2023-11-21T06:25:10;6.10;99.90
6696;DHT22;3385;48.928;10.330;2023-11-21T06:27:40;6.10;99.90
6696;DHT22;3385;48.928;10.330;2023-11-21T06:30:06;6.10;99.90
6696;DHT22;3385;48.928;10.330;2023-11-21T06:32:34;6.20;99.90
6696;DHT22;3385;48.928;10.330;2023-11-21T06:35:01;6.20;99.90
6696;DHT22;3385;48.928;10.330;2023-11-21T06:37:29;6.20;99.90
6696;DHT22;3385;48.928;10.330;2023-11-21T06:39:55;6.20;99.90
6696;DHT22;3385;48.928;10.330;2023-11-21T06:42:22;6.20;99.90
6696;DHT22;3385;48.928;10.330;2023-11-21T06:44:49;6.20;99.90
6696;DHT22;3385;48.928;10.330;2023-11-21T06:47:19;6.10;99.90
6696;DHT22;3385;48.928;10.330;2023-11-21T06:49:50;6.20;99.90
6696;DHT22;3385;48.928;10.330;2023-11-21T06:52:16;6.20;99.90
6696;DHT22;3385;48.928;10.330;2023-11-21T06:54:42;6.30;99.90
6696;DHT22;3385;48.928;10.330;2023-11-21T06:57:08;6.20;99.90
6696;DHT22;3385;48.928;10.330;2023-11-21T06:59:33;6.30;99.90
6696;DHT22;3385;48.928;10.330;2023-11-21T07:01:59;6.30;99.90
6696;DHT22;3385;48.928;10.330;2023-11-21T07:04:25;6.30;99.90
6696;DHT22;3385;48.928;10.330;2023-11-21T07:06:53;6.30;99.90
6696;DHT22;3385;48.928;10.330;2023-11-21T07:09:18;6.30;99.90
6696;DHT22;3385;48.928;10.330;2023-11-21T07:11:50;6.30;99.90
6696;DHT22;3385;48.928;10.330;2023-11-21T07:14:16;6.30;99.90
6696;DHT22;3385;48.928;10.330;2023-11-21T07:16:42;6.30;99.90
6696;DHT22;3385;48.928;10.330;2023-11-21T07:19:08;6.40;99.90
6696;DHT22;3385;48.928;10.330;2023-11-21T07:21:35;6.40;99.90
6696;DHT22;3385;48.928;10.330;2023-11-21T07:24:02;6.50;99.90
6696;DHT22;3385;48.928;10.330;2023-11-21T07:26:28;6.40;99.90
6696;DHT22;3385;48.928;10.330;2023-11-21T07:28:54;6.50;99.90
6696;DHT22;3385;48.928;10.330;2023-11-21T07:31:20;6.50;99.90
6696;DHT22;3385;48.928;10.330;2023-11-21T07:33:46;6.60;99.90
6696;DHT22;3385;48.928;10.330;2023-11-21T07:36:13;6.60;99.90
6696;DHT22;3385;48.928;10.330;2023-11-21T07:38:39;6.70;99.90
6696;DHT22;3385;48.928;10.330;2023-11-21T07:41:05;6.80;99.90
6696;DHT22;3385;48.928;10.330;2023-11-21T07:43:36;6.90;99.90
6696;DHT22;3385;48.928;10.330;2023-11-21T07:46:03;6.90;99.90
6696;DHT22;3385;48.928;10.330;2023-11-21T07:48:32;7.10;99.90
6696;DHT22;3385;48.928;10.330;2023-11-21T07:50:58;7.00;99.90
6696;DHT22;3385;48.928;10.330;2023-11-21T07:53:25;4.40;99.90
6696;DHT22;3385;48.928;10.330;2023-11-21T07:55:51;7.00;99.90
6696;DHT22;3385;48.928;10.330;2023-11-21T07:58:17;6.90;99.90
6696;DHT22;3385;48.928;10.330;2023-11-21T08:00:44;6.90;99.90
6696;DHT22;3385;48.928;10.330;2023-11-21T08:03:09;7.00;99.90
6696;DHT22;3385;48.928;10.330;2023-11-21T08:05:37;7.10;99.90
6696;DHT22;3385;48.928;10.330;2023-11-21T08:08:02;7.10;99.90
6696;DHT22;3385;48.928;10.330;2023-11-21T08:10:28;7.10;99.90
6696;DHT22;3385;48.928;10.330;2023-11-21T08:12:55;7.20;99.90
6696;DHT22;3385;48.928;10.330;2023-11-21T08:15:21;7.30;99.90
6696;DHT22;3385;48.928;10.330;2023-11-21T08:17:47;7.20;99.90
6696;DHT22;3385;48.928;10.330;2023-11-21T08:20:13;7.20;99.90
6696;DHT22;3385;48.928;10.330;2023-11-21T08:22:42;7.20;99.90
6696;DHT22;3385;48.928;10.330;2023-11-21T08:25:08;7.30;99.90
6696;DHT22;3385;48.928;10.330;2023-11-21T08:27:34;7.30;99.90
6696;DHT22;3385;48.928;10.330;2023-11-21T08:30:01;7.40;99.90
6696;DHT22;3385;48.928;10.330;2023-11-21T08:32:28;7.40;99.90
6696;DHT22;3385;48.928;10.330;2023-11-21T08:34:55;7.50;99.90
6696;DHT22;3385;48.928;10.330;2023-11-21T08:37:21;7.50;99.90
6696;DHT22;3385;48.928;10.330;2023-11-21T08:39:47;7.60;99.90
6696;DHT22;3385;48.928;10.330;2023-11-21T08:42:14;7.60;99.90
6696;DHT22;3385;48.928;10.330;2023-11-21T08:44:40;7.60;99.90
6696;DHT22;3385;48.928;10.330;2023-11-21T08:47:06;7.70;99.90
6696;DHT22;3385;48.928;10.330;2023-11-21T08:49:32;7.70;99.90
6696;DHT22;3385;48.928;10.330;2023-11-21T08:51:58;7.70;99.90
6696;DHT22;3385;48.928;10.330;2023-11-21T08:54:25;7.70;99.90
6696;DHT22;3385;48.928;10.330;2023-11-21T08:56:55;7.80;99.90
6696;DHT22;3385;48.928;10.330;2023-11-21T08:59:21;7.90;99.90
6696;DHT22;3385;48.928;10.330;2023-11-21T09:01:47;7.90;99.90
6696;DHT22;3385;48.928;10.330;2023-11-21T09:04:13;7.90;99.90
6696;DHT22;3385;48.928;10.330;2023-11-21T09:06:39;7.90;99.90
6696;DHT22;3385;48.928;10.330;2023-11-21T09:09:05;7.80;99.90
6696;DHT22;3385;48.928;10.330;2023-11-21T09:11:32;7.90;99.90
6696;DHT22;3385;48.928;10.330;2023-11-21T09:14:03;8.00;99.90
6696;DHT22;3385;48.928;10.330;2023-11-21T09:16:29;8.10;99.90
6696;DHT22;3385;48.928;10.330;2023-11-21T09:18:55;8.10;99.90
6696;DHT22;3385;48.928;10.330;2023-11-21T09:21:21;8.30;99.90
6696;DHT22;3385;48.928;10.330;2023-11-21T09:23:48;8.30;99.90
6696;DHT22;3385;48.928;10.330;2023-11-21T09:26:13;8.40;99.90
6696;DHT22;3385;48.928;10.330;2023-11-21T09:28:43;8.60;99.90
6696;DHT22;3385;48.928;10.330;2023-11-21T09:31:13;8.90;99.90
6696;DHT22;3385;48.928;10.330;2023-11-21T09:33:42;8.90;99.90
6696;DHT22;3385;48.928;10.330;2023-11-21T09:36:12;8.70;99.90
6696;DHT22;3385;48.928;10.330;2023-11-21T09:38:39;8.60;99.90
6696;DHT22;3385;48.928;10.330;2023-11-21T09:41:06;8.50;99.90
6696;DHT22;3385;48.928;10.330;2023-11-21T09:43:35;8.50;99.90
6696;DHT22;3385;48.928;10.330;2023-11-21T09:46:02;8.60;99.90
6696;DHT22;3385;48.928;10.330;2023-11-21T09:48:32;8.70;99.90
6696;DHT22;3385;48.928;10.330;2023-11-21T09:50:59;8.80;99.90
6696;DHT22;3385;48.928;10.330;2023-11-21T09:53:28;9.00;99.90
6696;DHT22;3385;48.928;10.330;2023-11-21T09:55:56;9.70;99.90
6696;DHT22;3385;48.928;10.330;2023-11-21T09:58:22;10.70;99.90
6696;DHT22;3385;48.928;10.330;2023-11-21T10:00:53;12.00;99.90
6696;DHT22;3385;48.928;10.330;2023-11-21T10:03:19;12.20;99.90
6696;DHT22;3385;48.928;10.330;2023-11-21T10:05:45;11.80;99.90
6696;DHT22;3385;48.928;10.330;2023-11-21T10:08:13;11.20;99.90
6696;DHT22;3385;48.928;10.330;2023-11-21T10:10:44;10.90;99.90
6696;DHT22;3385;48.928;10.330;2023-11-21T10:13:18;10.50;99.90
6696;DHT22;3385;48.928;10.330;2023-11-21T10:15:49;10.30;99.90
6696;DHT22;3385;48.928;10.330;2023-11-21T10:18:16;10.30;99.90
6696;DHT22;3385;48.928;10.330;2023-11-21T10:20:42;10.10;99.90
6696;DHT22;3385;48.928;10.330;2023-11-21T10:23:09;10.60;99.90
6696;DHT22;3385;48.928;10.330;2023-11-21T10:25:37;11.60;99.90
6696;DHT22;3385;48.928;10.330;2023-11-21T10:28:04;12.40;99.90
6696;DHT22;3385;48.928;10.330;2023-11-21T10:30:34;12.90;99.90
6696;DHT22;3385;48.928;10.330;2023-11-21T10:33:05;13.50;99.90
6696;DHT22;3385;48.928;10.330;2023-11-21T10:35:49;14.50;99.90
6696;DHT22;3385;48.928;10.330;2023-11-21T10:38:20;15.30;99.90
6696;DHT22;3385;48.928;10.330;2023-11-21T10:40:51;16.10;99.90
6696;DHT22;3385;48.928;10.330;2023-11-21T10:43:17;15.90;99.90
6696;DHT22;3385;48.928;10.330;2023-11-21T10:45:44;14.70;99.90
6696;DHT22;3385;48.928;10.330;2023-11-21T10:48:14;13.00;99.90
6696;DHT22;3385;48.928;10.330;2023-11-21T10:50:46;12.10;99.90
6696;DHT22;3385;48.928;10.330;2023-11-21T10:53:12;11.40;99.90
6696;DHT22;3385;48.928;10.330;2023-11-21T10:55:38;11.00;99.90
6696;DHT22;3385;48.928;10.330;2023-11-21T10:58:04;10.50;99.90
6696;DHT22;3385;48.928;10.330;2023-11-21T11:00:32;10.60;99.90
6696;DHT22;3385;48.928;10.330;2023-11-21T11:02:59;11.10;99.90
6696;DHT22;3385;48.928;10.330;2023-11-21T11:05:26;11.20;99.90
6696;DHT22;3385;48.928;10.330;2023-11-21T11:08:06;11.20;99.90
6696;DHT22;3385;48.928;10.330;2023-11-21T11:10:33;11.10;99.90
6696;DHT22;3385;48.928;10.330;2023-11-21T11:12:59;11.10;99.90
6696;DHT22;3385;48.928;10.330;2023-11-21T11:15:27;11.50;99.90
6696;DHT22;3385;48.928;10.330;2023-11-21T11:17:54;12.00;99.90
6696;DHT22;3385;48.928;10.330;2023-11-21T11:20:30;12.40;99.90
6696;DHT22;3385;48.928;10.330;2023-11-21T11:28:53;14.10;99.90
6696;DHT22;3385;48.928;10.330;2023-11-21T11:32:01;15.40;99.90
6696;DHT22;3385;48.928;10.330;2023-11-21T11:34:36;15.70;99.90
6696;DHT22;3385;48.928;10.330;2023-11-21T11:37:06;15.30;99.90
6696;DHT22;3385;48.928;10.330;2023-11-21T11:39:38;14.70;99.90
6696;DHT22;3385;48.928;10.330;2023-11-21T11:42:08;14.40;99.90
6696;DHT22;3385;48.928;10.330;2023-11-21T11:47:28;14.90;99.90
6696;DHT22;3385;48.928;10.330;2023-11-21T11:52:46;14.20;99.90
6696;DHT22;3385;48.928;10.330;2023-11-21T11:55:19;13.60;99.90
6696;DHT22;3385;48.928;10.330;2023-11-21T11:57:46;13.00;99.90
6696;DHT22;3385;48.928;10.330;2023-11-21T12:02:48;11.80;99.90
6696;DHT22;3385;48.928;10.330;2023-11-21T12:05:18;11.30;99.90
6696;DHT22;3385;48.928;10.330;2023-11-21T12:07:51;10.80;99.90
6696;DHT22;3385;48.928;10.330;2023-11-21T12:10:22;10.80;99.90
6696;DHT22;3385;48.928;10.330;2023-11-21T12:12:51;10.50;99.90
6696;DHT22;3385;48.928;10.330;2023-11-21T12:15:21;10.50;99.90
6696;DHT22;3385;48.928;10.330;2023-11-21T12:17:48;10.50;99.90
6696;DHT22;3385;48.928;10.330;2023-11-21T12:20:16;10.70;99.90
6696;DHT22;3385;48.928;10.330;2023-11-21T12:22:45;11.10;99.90
6696;DHT22;3385;48.928;10.330;2023-11-21T12:25:16;11.20;99.90
6696;DHT22;3385;48.928;10.330;2023-11-21T12:27:45;11.20;99.90
6696;DHT22;3385;48.928;10.330;2023-11-21T12:30:12;11.10;99.90
6696;DHT22;3385;48.928;10.330;2023-11-21T12:32:48;10.80;99.90
6696;DHT22;3385;48.928;10.330;2023-11-21T12:35:14;10.70;99.90
6696;DHT22;3385;48.928;10.330;2023-11-21T12:37:42;10.20;99.90
6696;DHT22;3385;48.928;10.330;2023-11-21T12:40:11;10.20;99.90
6696;DHT22;3385;48.928;10.330;2023-11-21T12:42:39;10.00;99.90
6696;DHT22;3385;48.928;10.330;2023-11-21T12:47:44;9.60;99.90
6696;DHT22;3385;48.928;10.330;2023-11-21T12:50:10;9.50;99.90
6696;DHT22;3385;48.928;10.330;2023-11-21T12:52:46;9.20;99.90
6696;DHT22;3385;48.928;10.330;2023-11-21T12:55:19;9.00;99.90
6696;DHT22;3385;48.928;10.330;2023-11-21T12:57:52;8.80;99.90
6696;DHT22;3385;48.928;10.330;2023-11-21T13:00:27;8.70;99.90
6696;DHT22;3385;48.928;10.330;2023-11-21T13:02:57;8.80;99.90
6696;DHT22;3385;48.928;10.330;2023-11-21T13:05:45;8.50;99.90
6696;DHT22;3385;48.928;10.330;2023-11-21T13:08:12;8.40;99.90
6696;DHT22;3385;48.928;10.330;2023-11-21T13:10:40;8.40;99.90
6696;DHT22;3385;48.928;10.330;2023-11-21T13:13:09;8.40;99.90
6696;DHT22;3385;48.928;10.330;2023-11-21T13:15:39;8.30;99.90
6696;DHT22;3385;48.928;10.330;2023-11-21T13:18:06;8.40;99.90
6696;DHT22;3385;48.928;10.330;2023-11-21T13:20:32;8.30;99.90
6696;DHT22;3385;48.928;10.330;2023-11-21T13:22:59;8.30;99.90
6696;DHT22;3385;48.928;10.330;2023-11-21T13:25:29;8.30;99.90
6696;DHT22;3385;48.928;10.330;2023-11-21T13:27:57;8.10;99.90
6696;DHT22;3385;48.928;10.330;2023-11-21T13:30:27;8.20;99.90
6696;DHT22;3385;48.928;10.330;2023-11-21T13:32:59;8.10;99.90
6696;DHT22;3385;48.928;10.330;2023-11-21T13:35:31;8.00;99.90
6696;DHT22;3385;48.928;10.330;2023-11-21T13:38:08;8.00;99.90
6696;DHT22;3385;48.928;10.330;2023-11-21T13:40:35;8.00;99.90
6696;DHT22;3385;48.928;10.330;2023-11-21T13:43:08;8.00;99.90
6696;DHT22;3385;48.928;10.330;2023-11-21T13:45:36;7.90;99.90
6696;DHT22;3385;48.928;10.330;2023-11-21T13:48:02;7.90;99.90
6696;DHT22;3385;48.928;10.330;2023-11-21T13:50:30;7.80;99.90
6696;DHT22;3385;48.928;10.330;2023-11-21T13:53:01;7.90;99.90
6696;DHT22;3385;48.928;10.330;2023-11-21T13:55:35;7.80;99.90
6696;DHT22;3385;48.928;10.330;2023-11-21T13:58:01;7.90;99.90
6696;DHT22;3385;48.928;10.330;2023-11-21T14:00:29;7.90;99.90
6696;DHT22;3385;48.928;10.330;2023-11-21T14:03:14;7.70;99.90
6696;DHT22;3385;48.928;10.330;2023-11-21T14:05:46;7.70;99.90
6696;DHT22;3385;48.928;10.330;2023-11-21T14:08:21;7.80;99.90
6696;DHT22;3385;48.928;10.330;2023-11-21T14:10:48;7.80;99.90
6696;DHT22;3385;48.928;10.330;2023-11-21T14:13:21;8.00;99.90
6696;DHT22;3385;48.928;10.330;2023-11-21T14:15:49;7.70;99.90
6696;DHT22;3385;48.928;10.330;2023-11-21T14:18:19;7.70;99.90
6696;DHT22;3385;48.928;10.330;2023-11-21T14:20:53;7.70;99.90
6696;DHT22;3385;48.928;10.330;2023-11-21T14:23:18;7.80;99.90
6696;DHT22;3385;48.928;10.330;2023-11-21T14:25:45;7.50;99.90
6696;DHT22;3385;48.928;10.330;2023-11-21T14:28:13;7.90;99.90
6696;DHT22;3385;48.928;10.330;2023-11-21T14:30:40;7.90;99.90
6696;DHT22;3385;48.928;10.330;2023-11-21T14:33:08;7.90;99.90
6696;DHT22;3385;48.928;10.330;2023-11-21T14:35:35;7.80;99.90
6696;DHT22;3385;48.928;10.330;2023-11-21T14:38:02;7.90;99.90
6696;DHT22;3385;48.928;10.330;2023-11-21T14:40:31;7.90;99.90
6696;DHT22;3385;48.928;10.330;2023-11-21T14:43:00;7.80;99.90
6696;DHT22;3385;48.928;10.330;2023-11-21T14:45:26;7.80;99.90
6696;DHT22;3385;48.928;10.330;2023-11-21T14:47:52;7.80;99.90
6696;DHT22;3385;48.928;10.330;2023-11-21T14:50:32;7.70;99.90
6696;DHT22;3385;48.928;10.330;2023-11-21T14:53:12;7.70;99.90
6696;DHT22;3385;48.928;10.330;2023-11-21T14:55:39;7.60;99.90
6696;DHT22;3385;48.928;10.330;2023-11-21T14:58:18;7.60;99.90
6696;DHT22;3385;48.928;10.330;2023-11-21T15:00:56;7.70;99.90
6696;DHT22;3385;48.928;10.330;2023-11-21T15:03:27;7.70;99.90
6696;DHT22;3385;48.928;10.330;2023-11-21T15:06:02;7.70;99.90
6696;DHT22;3385;48.928;10.330;2023-11-21T15:08:57;7.60;99.90
6696;DHT22;3385;48.928;10.330;2023-11-21T15:11:33;7.60;99.90
6696;DHT22;3385;48.928;10.330;2023-11-21T15:13:59;7.60;99.90
6696;DHT22;3385;48.928;10.330;2023-11-21T15:16:26;7.50;99.90
6696;DHT22;3385;48.928;10.330;2023-11-21T15:18:52;7.50;99.90
6696;DHT22;3385;48.928;10.330;2023-11-21T15:21:21;7.50;99.90
6696;DHT22;3385;48.928;10.330;2023-11-21T15:23:48;7.30;99.90
6696;DHT22;3385;48.928;10.330;2023-11-21T15:26:14;7.40;99.90
6696;DHT22;3385;48.928;10.330;2023-11-21T15:28:39;7.30;99.90
6696;DHT22;3385;48.928;10.330;2023-11-21T15:31:05;7.20;99.90
6696;DHT22;3385;48.928;10.330;2023-11-21T15:33:33;7.30;99.90
6696;DHT22;3385;48.928;10.330;2023-11-21T15:36:01;7.30;99.90
6696;DHT22;3385;48.928;10.330;2023-11-21T15:38:28;7.10;99.90
6696;DHT22;3385;48.928;10.330;2023-11-21T15:40:54;7.30;99.90
6696;DHT22;3385;48.928;10.330;2023-11-21T15:43:20;7.30;99.90
6696;DHT22;3385;48.928;10.330;2023-11-21T15:45:46;7.10;99.90
6696;DHT22;3385;48.928;10.330;2023-11-21T15:48:12;7.40;99.90
6696;DHT22;3385;48.928;10.330;2023-11-21T15:50:38;7.20;99.90
6696;DHT22;3385;48.928;10.330;2023-11-21T15:53:03;7.10;99.90
6696;DHT22;3385;48.928;10.330;2023-11-21T15:55:30;7.20;99.90
6696;DHT22;3385;48.928;10.330;2023-11-21T15:57:56;7.20;99.90
6696;DHT22;3385;48.928;10.330;2023-11-21T16:00:22;7.00;99.90
6696;DHT22;3385;48.928;10.330;2023-11-21T16:02:49;7.20;99.90
6696;DHT22;3385;48.928;10.330;2023-11-21T16:05:15;7.20;99.90
6696;DHT22;3385;48.928;10.330;2023-11-21T16:07:43;7.20;99.90
6696;DHT22;3385;48.928;10.330;2023-11-21T16:10:10;7.10;99.90
6696;DHT22;3385;48.928;10.330;2023-11-21T16:12:42;7.30;99.90
6696;DHT22;3385;48.928;10.330;2023-11-21T16:15:08;7.20;99.90
6696;DHT22;3385;48.928;10.330;2023-11-21T16:17:38;7.00;99.90
6696;DHT22;3385;48.928;10.330;2023-11-21T16:20:07;7.10;99.90